createdAt,value
2022-09-14T00:00:27.855Z,6.00
2022-09-14T00:02:54.758Z,3.03
2022-09-14T00:05:21.428Z,4.95
2022-09-14T00:07:48.114Z,2.78
2022-09-14T00:10:15.129Z,4.43
2022-09-14T00:12:41.700Z,2.85
2022-09-14T00:15:08.514Z,3.47
2022-09-14T00:17:35.339Z,4.10
2022-09-14T00:20:02.413Z,3.17
2022-09-14T00:22:28.917Z,3.03
2022-09-14T00:24:55.362Z,4.47
2022-09-14T00:27:21.777Z,4.30
2022-09-14T00:29:48.785Z,3.08
2022-09-14T00:32:15.483Z,3.53
2022-09-14T00:34:41.966Z,4.57
2022-09-14T00:37:08.428Z,2.85
2022-09-14T00:39:35.001Z,2.80
2022-09-14T00:42:01.695Z,3.85
2022-09-14T00:44:28.178Z,5.07
2022-09-14T00:46:56.989Z,2.55
2022-09-14T00:49:29.470Z,4.13
2022-09-14T00:52:04.038Z,5.88
2022-09-14T00:54:31.245Z,3.13
2022-09-14T00:56:59.252Z,2.55
2022-09-14T00:59:29.720Z,4.25
2022-09-14T01:01:56.297Z,3.00
2022-09-14T01:04:24.076Z,3.10
2022-09-14T01:06:59.324Z,3.00
2022-09-14T01:09:38.221Z,4.45
2022-09-14T01:12:07.720Z,3.85
2022-09-14T01:14:34.759Z,3.65
2022-09-14T01:17:14.460Z,2.90
2022-09-14T01:19:51.020Z,2.97
2022-09-14T01:22:33.629Z,4.82
2022-09-14T01:25:08.191Z,2.38
2022-09-14T01:27:41.710Z,5.05
2022-09-14T01:30:12.364Z,7.45
2022-09-14T01:32:42.280Z,1.73
2022-09-14T01:35:27.422Z,4.57
2022-09-14T01:37:56.026Z,2.15
2022-09-14T01:40:39.892Z,2.03
2022-09-14T01:43:12.031Z,3.10
2022-09-14T01:45:42.132Z,2.60
2022-09-14T01:48:10.575Z,2.30
2022-09-14T01:50:39.929Z,2.42
2022-09-14T01:53:12.640Z,2.45
2022-09-14T01:55:50.911Z,6.20
2022-09-14T01:58:25.765Z,1.80
2022-09-14T02:00:54.055Z,4.07
2022-09-14T02:03:24.260Z,6.47
2022-09-14T02:06:13.008Z,2.97
2022-09-14T02:08:39.567Z,4.00
2022-09-14T02:11:06.404Z,2.20
2022-09-14T02:13:33.560Z,2.75
2022-09-14T02:16:00.145Z,2.20
2022-09-14T02:18:26.836Z,2.33
2022-09-14T02:20:58.965Z,3.03
2022-09-14T02:23:25.759Z,2.03
2022-09-14T02:25:52.295Z,1.75
2022-09-14T02:28:18.916Z,2.20
2022-09-14T02:30:51.209Z,3.42
2022-09-14T02:33:26.098Z,2.83
2022-09-14T02:35:54.590Z,1.85
2022-09-14T02:38:33.312Z,2.58
2022-09-14T02:41:02.817Z,2.65
2022-09-14T02:43:41.657Z,3.05
2022-09-14T02:46:10.833Z,2.65
2022-09-14T02:48:49.680Z,1.80
2022-09-14T02:51:27.940Z,1.60
2022-09-14T02:54:00.674Z,1.75
2022-09-14T02:56:28.562Z,2.15
2022-09-14T02:58:55.855Z,2.55
2022-09-14T03:01:23.304Z,1.77
2022-09-14T03:03:49.856Z,1.80
2022-09-14T03:06:16.612Z,1.88
2022-09-14T03:08:43.618Z,1.85
2022-09-14T03:11:10.131Z,1.70
2022-09-14T03:13:36.792Z,1.73
2022-09-14T03:16:07.700Z,1.75
2022-09-14T03:18:34.975Z,1.73
2022-09-14T03:21:04.967Z,5.03
2022-09-14T03:23:35.205Z,4.22
2022-09-14T03:26:01.741Z,1.83
2022-09-14T03:28:28.351Z,2.13
2022-09-14T03:30:55.286Z,1.60
2022-09-14T03:33:21.937Z,1.50
2022-09-14T03:35:48.477Z,3.15
2022-09-14T03:38:14.978Z,1.60
2022-09-14T03:40:41.494Z,5.47
2022-09-14T03:43:09.010Z,2.63
2022-09-14T03:45:36.593Z,1.75
2022-09-14T03:48:03.241Z,4.05
2022-09-14T03:50:29.910Z,5.00
2022-09-14T03:52:56.541Z,2.80
2022-09-14T03:55:23.150Z,4.57
2022-09-14T03:57:53.573Z,1.85
2022-09-14T04:00:20.281Z,2.30
2022-09-14T04:02:46.927Z,1.80
2022-09-14T04:05:13.722Z,3.33
2022-09-14T04:07:40.310Z,1.65
2022-09-14T04:10:07.390Z,2.97
2022-09-14T04:12:34.837Z,1.95
2022-09-14T04:15:01.382Z,2.63
2022-09-14T04:17:28.263Z,2.03
2022-09-14T04:19:54.878Z,2.63
2022-09-14T04:22:21.507Z,3.17
2022-09-14T04:24:48.070Z,2.00
2022-09-14T04:27:14.741Z,1.77
2022-09-14T04:29:41.298Z,3.38
2022-09-14T04:32:08.027Z,2.63
2022-09-14T04:34:34.861Z,1.55
2022-09-14T04:37:01.717Z,3.53
2022-09-14T04:39:28.347Z,2.67
2022-09-14T04:41:54.813Z,3.42
2022-09-14T04:44:21.392Z,2.67
2022-09-14T04:46:47.959Z,2.60
2022-09-14T04:49:18.936Z,9.30
2022-09-14T04:51:45.591Z,3.00
2022-09-14T04:54:13.867Z,3.42
2022-09-14T04:56:40.882Z,4.47
2022-09-14T04:59:07.597Z,1.90
2022-09-14T05:01:41.207Z,3.35
2022-09-14T05:04:08.689Z,4.90
2022-09-14T05:06:36.673Z,4.57
2022-09-14T05:09:04.459Z,3.13
2022-09-14T05:11:32.322Z,2.38
2022-09-14T05:13:59.441Z,2.53
2022-09-14T05:16:30.097Z,2.80
2022-09-14T05:18:58.479Z,4.15
2022-09-14T05:21:25.583Z,4.47
2022-09-14T05:23:56.222Z,5.53
2022-09-14T05:26:23.372Z,3.78
2022-09-14T05:28:54.244Z,3.15
2022-09-14T05:31:21.084Z,4.72
2022-09-14T05:33:47.926Z,5.45
2022-09-14T05:36:14.570Z,5.10
2022-09-14T05:38:41.019Z,3.58
2022-09-14T05:41:08.514Z,2.30
2022-09-14T05:43:34.992Z,2.45
2022-09-14T05:46:02.717Z,3.33
2022-09-14T05:48:32.822Z,4.90
2022-09-14T05:51:00.353Z,2.88
2022-09-14T05:53:27.269Z,1.65
2022-09-14T05:56:10.617Z,2.95
2022-09-14T05:58:37.841Z,2.15
2022-09-14T06:01:14.910Z,1.60
2022-09-14T06:03:42.011Z,3.05
2022-09-14T06:06:09.637Z,2.60
2022-09-14T06:08:36.427Z,5.22
2022-09-14T06:11:04.618Z,5.40
2022-09-14T06:13:31.118Z,3.13
2022-09-14T06:16:01.488Z,3.35
2022-09-14T06:18:29.567Z,4.45
2022-09-14T06:20:56.017Z,2.50
2022-09-14T06:23:22.785Z,1.90
2022-09-14T06:25:49.267Z,1.50
2022-09-14T06:28:15.761Z,3.78
2022-09-14T06:30:42.866Z,1.92
2022-09-14T06:33:09.326Z,4.00
2022-09-14T06:35:35.777Z,3.85
2022-09-14T06:38:02.237Z,1.58
2022-09-14T06:40:29.564Z,5.13
2022-09-14T06:42:57.619Z,3.53
2022-09-14T06:45:24.119Z,8.20
2022-09-14T06:47:50.579Z,5.47
2022-09-14T06:50:17.061Z,3.83
2022-09-14T06:52:43.556Z,2.88
2022-09-14T06:55:10.020Z,2.65
2022-09-14T06:57:40.969Z,2.72
2022-09-14T07:00:09.966Z,2.50
2022-09-14T07:02:36.531Z,9.65
2022-09-14T07:05:03.895Z,2.15
2022-09-14T07:07:30.997Z,2.40
2022-09-14T07:09:57.449Z,2.08
2022-09-14T07:12:23.926Z,4.53
2022-09-14T07:14:50.398Z,2.38
2022-09-14T07:17:16.960Z,1.55
2022-09-14T07:19:43.657Z,2.95
2022-09-14T07:22:10.166Z,2.05
2022-09-14T07:24:36.836Z,2.30
2022-09-14T07:27:03.530Z,7.30
2022-09-14T07:29:30.005Z,3.70
2022-09-14T07:31:57.176Z,4.03
2022-09-14T07:34:25.009Z,5.80
2022-09-14T07:36:51.467Z,3.47
2022-09-14T07:39:18.190Z,5.72
2022-09-14T07:41:45.213Z,7.90
2022-09-14T07:44:14.317Z,7.28
2022-09-14T07:46:41.518Z,6.43
2022-09-14T07:49:08.726Z,7.72
2022-09-14T07:51:36.905Z,7.55
2022-09-14T07:54:03.901Z,7.20
2022-09-14T07:56:30.387Z,5.80
2022-09-14T07:59:17.145Z,5.70
2022-09-14T08:01:45.466Z,4.07
2022-09-14T08:04:12.094Z,9.30
2022-09-14T08:06:40.692Z,6.18
2022-09-14T08:09:08.636Z,12.50
2022-09-14T08:11:35.333Z,5.43
2022-09-14T08:14:03.514Z,6.18
2022-09-14T08:16:30.928Z,6.10
2022-09-14T08:18:58.543Z,6.55
2022-09-14T08:21:25.519Z,4.57
2022-09-14T08:23:52.101Z,3.63
2022-09-14T08:26:22.991Z,5.05
2022-09-14T08:28:50.531Z,6.22
2022-09-14T08:31:21.485Z,5.28
2022-09-14T08:33:49.144Z,3.35
2022-09-14T08:36:16.911Z,3.30
2022-09-14T08:38:43.701Z,3.75
2022-09-14T08:41:23.961Z,6.30
2022-09-14T08:43:50.538Z,3.85
2022-09-14T08:46:30.060Z,6.15
2022-09-14T08:48:56.791Z,6.20
2022-09-14T08:51:23.493Z,7.40
2022-09-14T08:53:51.081Z,5.07
2022-09-14T08:56:19.069Z,4.07
2022-09-14T08:58:57.481Z,5.35
2022-09-14T09:01:24.031Z,3.67
2022-09-14T09:04:05.888Z,6.32
2022-09-14T09:06:37.163Z,38.05
2022-09-14T09:09:19.073Z,54.88
2022-09-14T09:11:48.295Z,32.00
2022-09-14T09:14:24.082Z,36.08
2022-09-14T09:16:52.983Z,19.45
2022-09-14T09:19:29.282Z,19.27
2022-09-14T09:21:56.213Z,12.38
2022-09-14T09:24:27.410Z,18.95
2022-09-14T09:26:54.129Z,13.90
2022-09-14T09:29:21.780Z,16.85
2022-09-14T09:31:53.440Z,14.32
2022-09-14T09:34:24.963Z,19.45
2022-09-14T09:36:51.532Z,12.50
2022-09-14T09:39:18.057Z,16.23
2022-09-14T09:42:03.349Z,14.35
2022-09-14T09:44:29.867Z,10.98
2022-09-14T09:47:01.115Z,14.45
2022-09-14T09:49:27.675Z,11.88
2022-09-14T09:51:55.065Z,9.38
2022-09-14T09:54:23.991Z,12.57
2022-09-14T09:57:04.442Z,11.57
2022-09-14T09:59:41.819Z,10.85
2022-09-14T10:02:14.418Z,18.17
2022-09-14T10:04:56.686Z,8.95
2022-09-14T10:07:23.415Z,6.72
2022-09-14T10:10:12.412Z,8.50
2022-09-14T10:12:39.973Z,7.25
2022-09-14T10:15:18.667Z,7.85
2022-09-14T10:18:03.751Z,8.20
2022-09-14T10:20:30.581Z,7.47
2022-09-14T10:22:58.191Z,6.85
2022-09-14T10:25:26.196Z,7.95
2022-09-14T10:27:55.471Z,10.88
2022-09-14T10:30:23.660Z,9.60
2022-09-14T10:33:01.305Z,6.50
2022-09-14T10:35:48.076Z,7.43
2022-09-14T10:38:16.107Z,5.50
2022-09-14T10:40:44.235Z,7.82
2022-09-14T10:43:13.655Z,7.25
2022-09-14T10:45:55.840Z,6.70
2022-09-14T10:48:22.354Z,5.85
2022-09-14T10:50:58.774Z,6.13
2022-09-14T10:53:33.474Z,7.03
2022-09-14T10:56:02.865Z,7.13
2022-09-14T10:58:41.064Z,4.68
2022-09-14T11:01:07.555Z,4.10
2022-09-14T11:03:34.514Z,5.18
2022-09-14T11:06:04.038Z,5.72
2022-09-14T11:08:40.753Z,4.13
2022-09-14T11:11:19.513Z,6.75
2022-09-14T11:14:02.185Z,4.13
2022-09-14T11:16:34.637Z,3.35
2022-09-14T11:19:01.615Z,3.42
2022-09-14T11:21:28.954Z,5.03
2022-09-14T11:23:58.671Z,4.50
2022-09-14T11:26:25.567Z,4.93
2022-09-14T11:28:54.128Z,5.93
2022-09-14T11:31:29.205Z,4.90
2022-09-14T11:34:13.755Z,5.03
2022-09-14T11:36:44.547Z,3.58
2022-09-14T11:39:25.547Z,7.40
2022-09-14T11:42:07.747Z,4.25
2022-09-14T11:44:34.231Z,4.43
2022-09-14T11:47:20.889Z,4.20
2022-09-14T11:50:14.162Z,5.65
2022-09-14T11:52:40.609Z,3.97
2022-09-14T11:55:12.049Z,5.10
2022-09-14T11:57:38.789Z,4.18
2022-09-14T12:00:10.340Z,3.63
2022-09-14T12:02:37.049Z,5.35
2022-09-14T12:05:06.767Z,4.38
2022-09-14T12:07:36.238Z,2.70
2022-09-14T12:10:17.543Z,4.30
2022-09-14T12:12:45.238Z,4.65
2022-09-14T12:15:16.768Z,3.53
2022-09-14T12:17:44.599Z,4.20
2022-09-14T12:20:27.790Z,3.00
2022-09-14T12:23:04.341Z,3.15
2022-09-14T12:25:31.519Z,2.90
2022-09-14T12:27:57.985Z,3.17
2022-09-14T12:30:40.596Z,4.97
2022-09-14T12:33:27.670Z,3.70
2022-09-14T12:35:54.239Z,6.25
2022-09-14T12:38:30.238Z,2.75
2022-09-14T12:40:57.432Z,4.93
2022-09-14T12:43:32.762Z,3.50
2022-09-14T12:46:02.450Z,4.15
2022-09-14T12:48:47.374Z,3.60
2022-09-14T12:51:13.851Z,3.08
2022-09-14T12:53:41.249Z,3.60
2022-09-14T12:56:16.929Z,5.65
2022-09-14T12:59:08.330Z,5.80
2022-09-14T13:01:37.232Z,3.38
2022-09-14T13:04:04.990Z,3.97
2022-09-14T13:06:41.918Z,5.10
2022-09-14T13:09:15.169Z,3.67
2022-09-14T13:11:41.710Z,3.03
2022-09-14T13:14:15.889Z,2.90
2022-09-14T13:16:47.458Z,6.93
2022-09-14T13:19:33.258Z,3.47
2022-09-14T13:22:01.438Z,4.95
2022-09-14T13:24:31.297Z,5.80
2022-09-14T13:26:59.571Z,3.85
2022-09-14T13:29:27.123Z,3.80
2022-09-14T13:31:54.123Z,4.18
2022-09-14T13:34:25.712Z,4.13
2022-09-14T13:36:52.344Z,3.90
2022-09-14T13:39:30.199Z,3.15
2022-09-14T13:41:57.180Z,6.43
2022-09-14T13:44:26.129Z,4.03
2022-09-14T13:46:53.390Z,3.80
2022-09-14T13:49:20.799Z,5.97
2022-09-14T13:51:47.557Z,3.92
2022-09-14T13:54:28.359Z,3.17
2022-09-14T13:57:14.345Z,5.15
2022-09-14T13:59:59.549Z,3.47
2022-09-14T14:02:27.127Z,4.20
2022-09-14T14:04:53.649Z,2.90
2022-09-14T14:07:23.100Z,4.32
2022-09-14T14:09:53.971Z,3.88
2022-09-14T14:12:28.209Z,5.35
2022-09-14T14:15:02.167Z,4.57
2022-09-14T14:17:28.600Z,4.78
2022-09-14T14:19:56.243Z,4.82
2022-09-14T14:22:25.539Z,4.40
2022-09-14T14:27:43.176Z,4.57
2022-09-14T14:30:14.729Z,3.08
2022-09-14T14:32:41.320Z,5.97
2022-09-14T14:35:14.677Z,6.55
2022-09-14T14:37:41.178Z,4.20
2022-09-14T14:40:08.887Z,5.43
2022-09-14T14:42:35.382Z,8.48
2022-09-14T14:45:01.859Z,5.90
2022-09-14T14:47:28.327Z,6.13
2022-09-14T14:49:55.064Z,0.10
2022-09-14T14:52:21.534Z,0.13
2022-09-14T14:54:48.064Z,0.10
2022-09-14T14:57:14.544Z,0.00
2022-09-14T14:59:41.604Z,0.10
2022-09-14T15:02:09.242Z,0.10
2022-09-14T15:04:35.963Z,0.10
2022-09-14T15:07:02.445Z,0.10
2022-09-14T15:09:32.687Z,0.10
2022-09-14T15:11:59.215Z,0.03
2022-09-14T15:14:27.650Z,0.10
2022-09-14T15:16:58.142Z,0.10
2022-09-14T15:19:24.951Z,0.10
2022-09-14T15:21:51.681Z,0.10
2022-09-14T15:24:18.185Z,0.10
2022-09-14T15:26:44.704Z,0.10
2022-09-14T15:29:13.639Z,0.10
2022-09-14T15:31:40.685Z,0.13
2022-09-14T15:34:07.284Z,0.03
2022-09-14T15:36:38.293Z,0.10
2022-09-14T15:39:05.596Z,0.10
2022-09-14T15:41:32.174Z,0.10
2022-09-14T15:43:59.214Z,0.10
2022-09-14T15:46:25.794Z,0.10
2022-09-14T15:48:52.234Z,0.10
2022-09-14T15:51:19.719Z,0.10
2022-09-14T15:53:46.593Z,0.20
2022-09-14T15:56:13.984Z,0.10
2022-09-14T15:58:42.760Z,0.10
2022-09-14T16:01:13.803Z,0.10
2022-09-14T16:03:42.193Z,0.10
2022-09-14T16:06:12.672Z,0.10
2022-09-14T16:08:39.823Z,0.10
2022-09-14T16:11:06.854Z,0.10
2022-09-14T16:13:34.114Z,0.10
2022-09-14T16:16:04.634Z,0.10
2022-09-14T16:18:31.504Z,0.10
2022-09-14T16:21:03.505Z,0.10
2022-09-14T16:23:30.155Z,0.10
2022-09-14T16:25:56.624Z,0.20
2022-09-14T16:28:23.104Z,0.20
2022-09-14T16:30:49.625Z,0.10
2022-09-14T16:33:16.724Z,0.10
2022-09-14T16:35:43.242Z,0.10
2022-09-14T16:38:10.107Z,0.10
2022-09-14T16:40:38.998Z,0.10
2022-09-14T16:43:08.891Z,0.20
2022-09-14T16:45:35.499Z,0.10
2022-09-14T16:48:02.324Z,0.10
2022-09-14T16:50:28.802Z,0.10
2022-09-14T16:52:55.275Z,0.10
2022-09-14T16:55:21.727Z,0.20
2022-09-14T16:57:48.207Z,0.10
2022-09-14T17:00:15.014Z,0.10
2022-09-14T17:02:42.897Z,0.10
2022-09-14T17:05:09.724Z,0.10
2022-09-14T17:07:36.344Z,0.10
2022-09-14T17:10:02.974Z,0.10
2022-09-14T17:12:31.551Z,0.10
2022-09-14T17:14:58.117Z,0.10
2022-09-14T17:17:24.584Z,0.10
2022-09-14T17:19:51.154Z,0.10
2022-09-14T17:22:17.613Z,0.10
2022-09-14T17:24:44.072Z,0.10
2022-09-14T17:27:11.044Z,0.10
2022-09-14T17:29:39.926Z,0.10
2022-09-14T17:32:07.748Z,0.10
2022-09-14T17:34:35.952Z,0.10
2022-09-14T17:37:03.014Z,0.10
2022-09-14T17:39:29.764Z,0.10
2022-09-14T17:41:56.314Z,0.10
2022-09-14T17:44:25.813Z,0.10
2022-09-14T17:46:53.382Z,0.10
2022-09-14T17:49:21.410Z,0.10
2022-09-14T17:51:48.194Z,0.10
2022-09-14T17:54:14.850Z,0.10
2022-09-14T17:56:41.635Z,0.10
2022-09-14T17:59:12.722Z,0.10
2022-09-14T18:01:39.672Z,0.10
2022-09-14T18:04:07.894Z,0.05
2022-09-14T18:06:35.764Z,0.10
2022-09-14T18:09:08.816Z,0.10
2022-09-14T18:11:36.441Z,0.10
2022-09-14T18:14:03.794Z,0.10
2022-09-14T18:16:30.569Z,0.10
2022-09-14T18:18:59.866Z,0.10
2022-09-14T18:21:26.627Z,0.10
2022-09-14T18:23:54.111Z,0.10
2022-09-14T18:26:20.882Z,0.10
2022-09-14T18:28:47.424Z,0.10
2022-09-14T18:31:16.051Z,0.10
2022-09-14T18:33:52.305Z,0.10
2022-09-14T18:36:19.595Z,0.10
2022-09-14T18:38:46.434Z,0.20
2022-09-14T18:41:13.372Z,0.10
2022-09-14T18:43:42.864Z,0.10
2022-09-14T18:46:09.459Z,0.10
2022-09-14T18:48:35.997Z,0.10
2022-09-14T18:51:04.588Z,0.10
2022-09-14T18:53:31.432Z,0.10
2022-09-14T18:56:02.230Z,0.10
2022-09-14T18:58:29.111Z,0.10
2022-09-14T19:00:55.681Z,0.10
2022-09-14T19:03:22.318Z,0.10
2022-09-14T19:05:49.093Z,0.10
2022-09-14T19:08:15.702Z,0.10
2022-09-14T19:10:42.234Z,0.10
2022-09-14T19:13:08.954Z,0.10
2022-09-14T19:15:38.384Z,0.10
2022-09-14T19:18:04.933Z,0.10
2022-09-14T19:20:55.103Z,0.10
2022-09-14T19:23:22.384Z,0.10
2022-09-14T19:25:50.588Z,0.17
2022-09-14T19:28:17.936Z,0.10
2022-09-14T19:30:44.685Z,0.10
2022-09-14T19:33:11.298Z,0.10
2022-09-14T19:35:40.414Z,0.10
2022-09-14T19:38:07.384Z,0.10
2022-09-14T19:40:33.916Z,0.10
2022-09-14T19:43:01.029Z,0.05
2022-09-14T19:45:28.324Z,0.10
2022-09-14T19:47:55.944Z,0.10
2022-09-14T19:50:22.484Z,0.10
2022-09-14T19:52:49.161Z,0.20
2022-09-14T19:55:15.794Z,0.10
2022-09-14T19:57:42.285Z,0.10
2022-09-14T20:00:15.135Z,0.10
2022-09-14T20:02:48.034Z,0.10
2022-09-14T20:05:16.026Z,0.10
2022-09-14T20:07:43.341Z,0.10
2022-09-14T20:10:10.271Z,0.20
2022-09-14T20:12:36.744Z,0.10
2022-09-14T20:15:03.404Z,0.10
2022-09-14T20:17:29.928Z,0.20
2022-09-14T20:19:56.476Z,0.10
2022-09-14T20:22:22.904Z,0.10
2022-09-14T20:24:49.466Z,0.10
2022-09-14T20:27:15.954Z,0.10
2022-09-14T20:29:43.548Z,0.10
2022-09-14T20:32:10.064Z,0.10
2022-09-14T20:34:36.614Z,0.10
2022-09-14T20:37:03.106Z,0.10
2022-09-14T20:39:31.044Z,0.17
2022-09-14T20:41:57.528Z,0.13
2022-09-14T20:44:24.064Z,0.20
2022-09-14T20:46:51.900Z,0.10
2022-09-14T20:49:20.034Z,0.10
2022-09-14T20:51:46.837Z,0.10
2022-09-14T20:54:15.302Z,0.10
2022-09-14T20:56:42.351Z,0.10
2022-09-14T20:59:11.005Z,0.10
2022-09-14T21:01:38.553Z,0.10
2022-09-14T21:04:09.836Z,0.20
2022-09-14T21:06:37.785Z,0.20
2022-09-14T21:09:05.134Z,0.15
2022-09-14T21:11:31.625Z,0.10
2022-09-14T21:13:58.114Z,0.20
2022-09-14T21:16:26.316Z,0.10
2022-09-14T21:18:54.264Z,0.17
2022-09-14T21:21:21.005Z,0.10
2022-09-14T21:23:50.505Z,0.10
2022-09-14T21:26:18.166Z,0.20
2022-09-14T21:28:44.692Z,0.10
2022-09-14T21:31:11.326Z,0.10
2022-09-14T21:33:38.969Z,0.10
2022-09-14T21:36:06.673Z,0.05
2022-09-14T21:38:33.218Z,0.10
2022-09-14T21:40:59.660Z,0.10
2022-09-14T21:43:26.472Z,0.15
2022-09-14T21:45:53.134Z,0.10
2022-09-14T21:48:19.984Z,0.10
2022-09-14T21:50:47.463Z,0.10
2022-09-14T21:53:14.126Z,0.10
2022-09-14T21:55:40.803Z,0.10
2022-09-14T21:58:07.262Z,0.20
2022-09-14T22:00:34.035Z,0.10
2022-09-14T22:03:00.650Z,0.10
2022-09-14T22:05:27.224Z,0.10
2022-09-14T22:07:53.724Z,0.10
2022-09-14T22:10:20.181Z,0.10
2022-09-14T22:12:47.831Z,0.10
2022-09-14T22:15:14.815Z,0.10
2022-09-14T22:17:41.293Z,0.10
2022-09-14T22:20:07.853Z,0.13
2022-09-14T22:22:34.481Z,0.10
2022-09-14T22:25:00.858Z,0.10
2022-09-14T22:27:27.268Z,0.00
2022-09-14T22:29:53.738Z,0.20
2022-09-14T22:32:21.629Z,0.10
2022-09-14T22:34:50.467Z,0.20
2022-09-14T22:37:16.918Z,0.10
2022-09-14T22:39:43.455Z,0.10
2022-09-14T22:42:09.953Z,0.20
2022-09-14T22:44:36.347Z,0.10
2022-09-14T22:47:02.730Z,0.10
2022-09-14T22:49:29.185Z,0.10
2022-09-14T22:51:55.621Z,0.10
2022-09-14T22:54:22.056Z,0.10
2022-09-14T22:56:48.477Z,0.20
2022-09-14T22:59:14.867Z,0.13
2022-09-14T23:01:41.851Z,0.10
2022-09-14T23:04:09.549Z,0.10
2022-09-14T23:06:40.554Z,0.10
2022-09-14T23:09:08.055Z,0.13
2022-09-14T23:11:34.914Z,0.17
2022-09-14T23:14:01.485Z,0.10
2022-09-14T23:16:29.026Z,0.10
2022-09-14T23:19:00.125Z,0.10
2022-09-14T23:21:27.362Z,0.20
2022-09-14T23:23:54.959Z,0.10
2022-09-14T23:26:21.935Z,0.20
2022-09-14T23:28:52.655Z,0.10
2022-09-14T23:31:19.490Z,0.10
2022-09-14T23:33:48.673Z,0.20
2022-09-14T23:36:15.276Z,0.10
2022-09-14T23:38:41.975Z,0.13
2022-09-14T23:41:08.477Z,0.10
2022-09-14T23:43:35.085Z,0.10
2022-09-14T23:46:01.638Z,0.10
2022-09-14T23:48:28.684Z,0.10
2022-09-14T23:50:58.819Z,0.10
2022-09-14T23:53:25.742Z,0.20
2022-09-14T23:55:52.623Z,0.20
2022-09-14T23:58:19.254Z,0.10
